createdAt,value
2018-02-04T00:01:41.346Z,27.17
2018-02-04T00:04:07.528Z,27.00
2018-02-04T00:06:33.679Z,24.53
2018-02-04T00:08:59.762Z,23.63
2018-02-04T00:11:25.962Z,24.40
2018-02-04T00:13:52.107Z,24.20
2018-02-04T00:16:18.251Z,24.03
2018-02-04T00:18:44.369Z,25.60
2018-02-04T00:21:10.642Z,24.20
2018-02-04T00:23:36.829Z,24.53
2018-02-04T00:26:02.993Z,27.40
2018-02-04T00:28:29.089Z,26.67
2018-02-04T00:30:55.322Z,34.03
2018-02-04T00:33:21.548Z,32.27
2018-02-04T00:35:47.665Z,34.90
2018-02-04T00:38:13.790Z,34.57
2018-02-04T00:40:39.983Z,25.00
2018-02-04T00:43:06.180Z,26.07
2018-02-04T00:45:32.274Z,21.23
2018-02-04T00:47:58.386Z,20.70
2018-02-04T00:50:24.511Z,18.60
2018-02-04T00:52:50.749Z,16.20
2018-02-04T00:55:16.929Z,14.67
2018-02-04T00:57:43.053Z,11.37
2018-02-04T01:00:09.316Z,10.53
2018-02-04T01:02:35.484Z,11.73
2018-02-04T01:05:01.648Z,9.50
2018-02-04T01:07:27.750Z,9.67
2018-02-04T01:09:53.915Z,10.40
2018-02-04T01:12:20.021Z,9.07
2018-02-04T01:14:46.198Z,8.53
2018-02-04T01:17:12.358Z,8.87
2018-02-04T01:19:38.452Z,9.30
2018-02-04T01:22:04.548Z,8.90
2018-02-04T01:24:30.727Z,9.77
2018-02-04T01:26:56.844Z,11.23
2018-02-04T01:29:22.969Z,9.70
2018-02-04T01:31:49.102Z,9.87
2018-02-04T01:34:15.281Z,9.53
2018-02-04T01:36:41.376Z,8.53
2018-02-04T01:39:07.477Z,9.70
2018-02-04T01:41:33.618Z,9.47
2018-02-04T01:43:59.788Z,9.83
2018-02-04T01:46:25.893Z,10.67
2018-02-04T01:48:52.074Z,9.47
2018-02-04T01:51:18.170Z,9.50
2018-02-04T01:53:44.323Z,10.27
2018-02-04T01:56:10.459Z,9.57
2018-02-04T01:58:36.661Z,8.90
2018-02-04T02:01:02.795Z,9.00
2018-02-04T02:03:28.954Z,11.33
2018-02-04T02:05:55.063Z,8.93
2018-02-04T02:08:21.164Z,9.40
2018-02-04T02:10:47.312Z,9.07
2018-02-04T02:13:13.487Z,8.70
2018-02-04T02:15:39.608Z,9.33
2018-02-04T02:18:05.704Z,10.43
2018-02-04T02:20:31.858Z,8.80
2018-02-04T02:22:58.010Z,10.23
2018-02-04T02:25:24.097Z,10.73
2018-02-04T02:27:50.238Z,10.30
2018-02-04T02:30:16.454Z,11.00
2018-02-04T02:32:42.555Z,12.03
2018-02-04T02:35:08.767Z,10.37
2018-02-04T02:37:34.925Z,11.70
2018-02-04T02:40:01.035Z,13.90
2018-02-04T02:42:27.185Z,12.50
2018-02-04T02:44:53.344Z,11.43
2018-02-04T02:47:19.451Z,11.97
2018-02-04T02:49:45.594Z,11.90
2018-02-04T02:52:11.766Z,12.13
2018-02-04T02:54:37.922Z,11.97
2018-02-04T02:57:04.018Z,12.27
2018-02-04T02:59:30.206Z,12.40
2018-02-04T03:01:56.323Z,12.03
2018-02-04T03:04:22.485Z,12.70
2018-02-04T03:06:48.579Z,12.00
2018-02-04T03:09:14.723Z,10.80
2018-02-04T03:11:40.821Z,11.97
2018-02-04T03:14:07.011Z,8.77
2018-02-04T03:16:33.159Z,11.07
2018-02-04T03:18:59.267Z,11.87
2018-02-04T03:21:25.418Z,11.43
2018-02-04T03:23:51.558Z,13.93
2018-02-04T03:26:17.659Z,12.77
2018-02-04T03:28:43.802Z,11.47
2018-02-04T03:31:09.905Z,12.20
2018-02-04T03:33:36.065Z,9.63
2018-02-04T03:36:02.250Z,11.47
2018-02-04T03:38:28.335Z,10.83
2018-02-04T03:40:54.443Z,10.90
2018-02-04T03:43:20.640Z,9.97
2018-02-04T03:45:46.741Z,8.83
2018-02-04T03:48:12.849Z,10.13
2018-02-04T03:50:38.997Z,10.70
2018-02-04T03:53:05.115Z,10.50
2018-02-04T03:55:31.271Z,10.77
2018-02-04T03:57:57.442Z,7.97
2018-02-04T04:00:23.540Z,8.20
2018-02-04T04:02:49.710Z,7.33
2018-02-04T04:05:15.888Z,8.20
2018-02-04T04:07:41.993Z,7.00
2018-02-04T04:10:08.080Z,6.53
2018-02-04T04:12:34.224Z,7.07
2018-02-04T04:15:00.400Z,6.80
2018-02-04T04:17:26.495Z,8.43
2018-02-04T04:19:52.717Z,8.67
2018-02-04T04:22:18.887Z,8.83
2018-02-04T04:24:45.926Z,9.80
2018-02-04T04:27:12.145Z,9.70
2018-02-04T04:29:38.373Z,9.70
2018-02-04T04:32:04.575Z,7.93
2018-02-04T04:34:30.780Z,8.27
2018-02-04T04:36:56.995Z,8.40
2018-02-04T04:39:23.162Z,8.07
2018-02-04T04:41:49.402Z,8.07
2018-02-04T04:44:15.626Z,9.23
2018-02-04T04:46:41.818Z,8.57
2018-02-04T04:49:07.986Z,8.23
2018-02-04T04:51:34.144Z,7.83
2018-02-04T04:54:00.355Z,8.27
2018-02-04T04:56:26.532Z,7.30
2018-02-04T04:58:52.749Z,5.70
2018-02-04T05:01:18.929Z,8.47
2018-02-04T05:03:45.253Z,6.00
2018-02-04T05:06:11.394Z,6.10
2018-02-04T05:08:37.548Z,5.70
2018-02-04T05:11:03.728Z,5.87
2018-02-04T05:13:29.936Z,7.33
2018-02-04T05:15:56.056Z,8.07
2018-02-04T05:18:22.224Z,7.33
2018-02-04T05:20:48.382Z,7.53
2018-02-04T05:23:14.548Z,6.13
2018-02-04T05:25:40.770Z,6.77
2018-02-04T05:28:07.000Z,5.27
2018-02-04T05:30:33.170Z,5.87
2018-02-04T05:32:59.446Z,5.63
2018-02-04T05:35:25.657Z,5.43
2018-02-04T05:37:51.867Z,8.10
2018-02-04T05:40:18.032Z,5.73
2018-02-04T05:42:44.239Z,5.47
2018-02-04T05:45:10.473Z,6.13
2018-02-04T05:47:36.653Z,6.83
2018-02-04T05:50:02.816Z,6.13
2018-02-04T05:52:28.990Z,9.13
2018-02-04T05:54:55.251Z,6.47
2018-02-04T05:57:21.511Z,6.83
2018-02-04T05:59:47.716Z,6.67
2018-02-04T06:02:13.950Z,7.27
2018-02-04T06:04:40.120Z,6.20
2018-02-04T06:07:06.287Z,4.80
2018-02-04T06:09:32.507Z,6.13
2018-02-04T06:11:58.704Z,5.97
2018-02-04T06:14:24.953Z,9.33
2018-02-04T06:16:51.228Z,8.20
2018-02-04T06:19:17.397Z,7.00
2018-02-04T06:21:43.582Z,9.07
2018-02-04T06:24:09.832Z,8.00
2018-02-04T06:26:36.100Z,7.23
2018-02-04T06:29:02.406Z,7.90
2018-02-04T06:31:28.672Z,6.87
2018-02-04T06:33:54.966Z,6.40
2018-02-04T06:36:21.210Z,9.00
2018-02-04T06:38:47.544Z,8.03
2018-02-04T06:41:13.700Z,7.60
2018-02-04T06:43:39.855Z,6.00
2018-02-04T06:46:06.085Z,6.63
2018-02-04T06:48:32.245Z,7.83
2018-02-04T06:50:58.475Z,8.50
2018-02-04T06:53:24.692Z,8.63
2018-02-04T06:55:50.921Z,5.97
2018-02-04T06:58:17.124Z,7.80
2018-02-04T07:00:43.359Z,6.57
2018-02-04T07:03:09.541Z,6.40
2018-02-04T07:05:35.735Z,6.57
2018-02-04T07:08:01.880Z,6.33
2018-02-04T07:10:28.105Z,6.63
2018-02-04T07:12:54.338Z,6.10
2018-02-04T07:15:20.539Z,6.97
2018-02-04T07:17:46.914Z,7.53
2018-02-04T07:20:13.154Z,5.93
2018-02-04T07:22:39.316Z,5.87
2018-02-04T07:25:05.545Z,6.40
2018-02-04T07:27:31.744Z,13.00
2018-02-04T07:29:58.080Z,6.80
2018-02-04T07:32:24.318Z,8.27
2018-02-04T07:34:50.515Z,6.73
2018-02-04T07:37:16.677Z,7.33
2018-02-04T07:39:42.913Z,7.43
2018-02-04T07:42:09.140Z,5.97
2018-02-04T07:44:35.340Z,6.93
2018-02-04T07:47:01.562Z,6.33
2018-02-04T07:49:27.812Z,7.40
2018-02-04T07:51:54.019Z,7.20
2018-02-04T07:54:20.279Z,8.80
2018-02-04T07:56:46.442Z,7.83
2018-02-04T07:59:12.641Z,6.93
2018-02-04T08:01:38.805Z,6.33
2018-02-04T08:04:04.947Z,7.03
2018-02-04T08:06:31.153Z,6.83
2018-02-04T08:08:57.327Z,6.70
2018-02-04T08:11:23.646Z,7.43
2018-02-04T08:13:49.841Z,7.30
2018-02-04T08:16:16.087Z,6.23
2018-02-04T08:18:42.314Z,6.73
2018-02-04T08:21:08.534Z,7.23
2018-02-04T08:23:34.793Z,6.37
2018-02-04T08:26:01.026Z,7.27
2018-02-04T08:28:27.262Z,6.83
2018-02-04T08:30:53.521Z,7.27
2018-02-04T08:33:19.687Z,6.97
2018-02-04T08:35:46.052Z,7.13
2018-02-04T08:38:12.294Z,7.60
2018-02-04T08:40:38.590Z,7.77
2018-02-04T08:43:04.765Z,6.47
2018-02-04T08:45:30.969Z,6.47
2018-02-04T08:47:57.162Z,7.07
2018-02-04T08:50:23.370Z,5.83
2018-02-04T08:52:49.561Z,6.20
2018-02-04T08:55:15.812Z,5.30
2018-02-04T08:57:42.023Z,5.13
2018-02-04T09:00:08.202Z,5.23
2018-02-04T09:02:34.411Z,5.23
2018-02-04T09:05:00.718Z,5.57
2018-02-04T09:07:26.898Z,4.87
2018-02-04T09:09:53.080Z,4.83
2018-02-04T09:12:19.703Z,5.37
2018-02-04T09:14:45.958Z,5.67
2018-02-04T09:17:12.152Z,7.23
2018-02-04T09:19:38.384Z,7.17
2018-02-04T09:22:04.768Z,5.10
2018-02-04T09:24:30.908Z,4.90
2018-02-04T09:26:57.170Z,4.83
2018-02-04T09:29:24.321Z,3.50
2018-02-04T09:31:50.509Z,5.47
2018-02-04T09:34:16.672Z,4.20
2018-02-04T09:36:42.899Z,4.07
2018-02-04T09:39:09.071Z,4.20
2018-02-04T09:41:35.223Z,4.53
2018-02-04T09:44:01.418Z,5.00
2018-02-04T09:46:27.619Z,5.70
2018-02-04T09:48:53.777Z,4.20
2018-02-04T09:51:19.995Z,4.67
2018-02-04T09:53:46.254Z,5.87
2018-02-04T09:56:12.431Z,4.20
2018-02-04T09:58:38.698Z,3.67
2018-02-04T10:01:04.886Z,4.37
2018-02-04T10:03:31.044Z,4.33
2018-02-04T10:05:57.268Z,4.03
2018-02-04T10:08:23.476Z,3.90
2018-02-04T10:10:49.635Z,3.67
2018-02-04T10:13:15.819Z,3.50
2018-02-04T10:15:42.011Z,3.03
2018-02-04T10:18:08.228Z,3.83
2018-02-04T10:20:34.485Z,4.20
2018-02-04T10:23:00.713Z,4.50
2018-02-04T10:25:26.958Z,3.90
2018-02-04T10:27:53.414Z,4.17
2018-02-04T10:30:19.646Z,8.87
2018-02-04T10:32:45.861Z,4.47
2018-02-04T10:35:12.110Z,5.30
2018-02-04T10:37:38.483Z,5.17
2018-02-04T10:40:04.642Z,6.33
2018-02-04T10:42:30.828Z,3.67
2018-02-04T10:44:57.091Z,3.37
2018-02-04T10:47:23.277Z,4.40
2018-02-04T10:49:50.071Z,5.23
2018-02-04T10:52:16.346Z,3.77
2018-02-04T10:54:42.492Z,3.73
2018-02-04T10:57:08.783Z,3.90
2018-02-04T10:59:35.040Z,2.80
2018-02-04T11:02:01.191Z,3.37
2018-02-04T11:04:27.387Z,3.20
2018-02-04T11:06:53.911Z,7.03
2018-02-04T11:09:20.067Z,4.07
2018-02-04T11:11:46.229Z,3.97
2018-02-04T11:14:12.404Z,3.50
2018-02-04T11:16:38.584Z,3.27
2018-02-04T11:19:04.786Z,3.13
2018-02-04T11:21:30.958Z,3.43
2018-02-04T11:23:57.455Z,2.50
2018-02-04T11:26:23.712Z,4.17
2018-02-04T11:28:49.888Z,3.50
2018-02-04T11:31:18.671Z,3.00
2018-02-04T11:33:44.824Z,3.17
2018-02-04T11:36:11.109Z,4.70
2018-02-04T11:38:37.220Z,3.90
2018-02-04T11:41:03.597Z,3.87
2018-02-04T11:43:29.729Z,5.13
2018-02-04T11:45:55.928Z,4.17
2018-02-04T11:48:22.078Z,3.57
2018-02-04T11:50:48.218Z,3.03
2018-02-04T11:53:14.471Z,3.63
2018-02-04T11:55:40.734Z,3.67
2018-02-04T11:58:06.958Z,3.43
2018-02-04T12:00:33.179Z,4.23
2018-02-04T12:02:59.389Z,3.50
2018-02-04T12:05:25.615Z,4.67
2018-02-04T12:07:51.792Z,3.50
2018-02-04T12:10:18.091Z,3.27
2018-02-04T12:12:44.342Z,3.90
2018-02-04T12:15:10.548Z,3.20
2018-02-04T12:17:36.828Z,4.40
2018-02-04T12:20:03.161Z,3.97
2018-02-04T12:22:29.358Z,3.73
2018-02-04T12:24:55.604Z,3.93
2018-02-04T12:27:21.869Z,3.33
2018-02-04T12:29:50.818Z,5.00
2018-02-04T12:32:16.993Z,3.83
2018-02-04T12:34:43.207Z,3.67
2018-02-04T12:37:09.489Z,4.00
2018-02-04T12:39:36.777Z,3.20
2018-02-04T12:42:02.918Z,2.90
2018-02-04T12:44:29.273Z,2.87
2018-02-04T12:46:55.481Z,3.77
2018-02-04T12:49:21.668Z,4.03
2018-02-04T12:51:47.884Z,3.67
2018-02-04T12:54:14.971Z,4.17
2018-02-04T12:56:41.214Z,3.30
2018-02-04T12:59:07.501Z,3.40
2018-02-04T13:01:33.984Z,5.43
2018-02-04T13:04:00.099Z,4.00
2018-02-04T13:06:26.354Z,4.93
2018-02-04T13:08:52.533Z,4.47
2018-02-04T13:11:18.733Z,3.73
2018-02-04T13:13:45.043Z,4.30
2018-02-04T13:16:11.226Z,2.40
2018-02-04T13:18:37.418Z,3.00
2018-02-04T13:21:03.578Z,2.97
2018-02-04T13:23:29.746Z,4.27
2018-02-04T13:25:55.916Z,4.27
2018-02-04T13:28:22.128Z,4.30
2018-02-04T13:30:48.470Z,3.90
2018-02-04T13:33:14.708Z,4.30
2018-02-04T13:35:40.873Z,3.10
2018-02-04T13:38:07.076Z,4.40
2018-02-04T13:40:33.297Z,3.23
2018-02-04T13:42:59.466Z,2.60
2018-02-04T13:45:25.671Z,2.80
2018-02-04T13:47:51.941Z,2.53
2018-02-04T13:50:18.081Z,4.23
2018-02-04T13:52:44.237Z,4.97
2018-02-04T13:55:10.407Z,4.10
2018-02-04T13:57:36.630Z,3.47
2018-02-04T14:00:02.949Z,3.17
2018-02-04T14:02:29.082Z,4.63
2018-02-04T14:04:55.272Z,3.93
2018-02-04T14:07:21.469Z,3.67
2018-02-04T14:09:47.729Z,4.17
2018-02-04T14:12:13.952Z,3.13
2018-02-04T14:14:40.122Z,6.63
2018-02-04T14:17:06.408Z,4.20
2018-02-04T14:19:32.633Z,3.83
2018-02-04T14:21:58.837Z,3.80
2018-02-04T14:24:25.048Z,3.93
2018-02-04T14:26:51.287Z,4.20
2018-02-04T14:29:17.536Z,3.80
2018-02-04T14:31:43.695Z,3.90
2018-02-04T14:34:10.120Z,3.87
2018-02-04T14:36:36.426Z,4.30
2018-02-04T14:39:02.591Z,5.90
2018-02-04T14:41:35.854Z,4.17
2018-02-04T14:44:01.996Z,4.33
2018-02-04T14:46:28.278Z,4.37
2018-02-04T14:48:59.474Z,4.60
2018-02-04T14:51:27.236Z,7.37
2018-02-04T14:53:53.687Z,4.60
2018-02-04T14:56:20.078Z,3.77
2018-02-04T14:58:46.359Z,5.27
2018-02-04T15:01:12.695Z,5.17
2018-02-04T15:03:38.889Z,4.90
2018-02-04T15:06:05.055Z,4.90
2018-02-04T15:08:31.271Z,5.27
2018-02-04T15:10:57.597Z,5.30
2018-02-04T15:13:23.781Z,6.43
2018-02-04T15:15:49.929Z,4.10
2018-02-04T15:18:16.167Z,7.90
2018-02-04T15:20:42.322Z,5.97
2018-02-04T15:23:08.604Z,4.77
2018-02-04T15:25:34.849Z,5.70
2018-02-04T15:28:01.205Z,8.23
2018-02-04T15:30:28.136Z,5.30
2018-02-04T15:32:55.313Z,4.90
2018-02-04T15:35:22.058Z,6.40
2018-02-04T15:37:48.336Z,4.23
2018-02-04T15:40:14.513Z,5.00
2018-02-04T15:42:40.812Z,5.53
2018-02-04T15:45:08.006Z,3.57
2018-02-04T15:47:34.177Z,4.60
2018-02-04T15:50:01.092Z,3.97
2018-02-04T15:52:27.288Z,5.13
2018-02-04T15:54:59.941Z,4.77
2018-02-04T15:57:36.934Z,4.90
2018-02-04T16:00:04.566Z,5.33
2018-02-04T16:02:30.807Z,8.57
2018-02-04T16:04:56.985Z,6.13
2018-02-04T16:07:23.180Z,6.77
2018-02-04T16:09:51.004Z,10.87
2018-02-04T16:12:18.565Z,6.80
2018-02-04T16:14:44.734Z,6.80
2018-02-04T16:17:11.264Z,7.33
2018-02-04T16:19:37.658Z,7.40
2018-02-04T16:22:04.790Z,9.27
2018-02-04T16:24:31.753Z,7.53
2018-02-04T16:26:57.926Z,6.80
2018-02-04T16:29:24.123Z,4.93
2018-02-04T16:31:50.490Z,7.23
2018-02-04T16:34:16.728Z,6.60
2018-02-04T16:36:43.009Z,6.70
2018-02-04T16:39:09.161Z,6.63
2018-02-04T16:41:35.340Z,7.53
2018-02-04T16:44:01.561Z,6.53
2018-02-04T16:46:27.683Z,10.60
2018-02-04T16:48:53.871Z,7.20
2018-02-04T16:51:20.057Z,7.57
2018-02-04T16:53:46.279Z,7.27
2018-02-04T16:56:12.511Z,4.20
2018-02-04T16:58:38.709Z,6.37
2018-02-04T17:01:04.916Z,5.53
2018-02-04T17:03:31.111Z,5.33
2018-02-04T17:05:57.315Z,6.07
2018-02-04T17:08:23.608Z,6.17
2018-02-04T17:10:49.852Z,7.47
2018-02-04T17:13:16.044Z,6.83
2018-02-04T17:15:42.213Z,5.83
2018-02-04T17:18:08.386Z,6.77
2018-02-04T17:20:34.585Z,7.27
2018-02-04T17:23:00.839Z,9.20
2018-02-04T17:25:27.031Z,5.43
2018-02-04T17:27:53.232Z,5.23
2018-02-04T17:30:19.565Z,5.20
2018-02-04T17:32:45.752Z,5.47
2018-02-04T17:35:11.884Z,5.40
2018-02-04T17:37:38.107Z,5.93
2018-02-04T19:05:41.678Z,9.67
2018-02-04T19:23:28.857Z,10.80
2018-02-04T19:56:28.845Z,10.27
2018-02-04T19:58:59.068Z,11.13
2018-02-04T20:07:30.581Z,9.53
2018-02-04T20:09:56.770Z,8.27
2018-02-04T20:12:22.962Z,8.23
2018-02-04T20:14:49.135Z,8.17
2018-02-04T20:17:15.259Z,8.17
2018-02-04T20:19:41.376Z,8.07
2018-02-04T20:22:07.560Z,8.60
2018-02-04T20:24:33.822Z,8.37
2018-02-04T20:26:59.968Z,6.90
2018-02-04T20:29:26.133Z,7.10
2018-02-04T20:31:52.310Z,7.67
2018-02-04T20:34:30.510Z,8.33
2018-02-04T20:36:56.678Z,8.07
2018-02-04T20:39:22.826Z,7.40
2018-02-04T20:41:48.977Z,7.43
2018-02-04T20:44:15.161Z,8.07
2018-02-04T20:46:41.358Z,9.27
2018-02-04T20:49:07.491Z,9.13
2018-02-04T20:51:33.686Z,9.67
2018-02-04T20:53:59.884Z,8.43
2018-02-04T20:56:26.047Z,8.33
2018-02-04T20:58:52.290Z,7.50
2018-02-04T21:01:18.399Z,8.17
2018-02-04T21:03:44.567Z,7.40
2018-02-04T21:06:10.723Z,7.73
2018-02-04T21:08:37.199Z,7.40
2018-02-04T21:11:03.313Z,7.30
2018-02-04T21:13:29.540Z,11.20
2018-02-04T21:15:55.694Z,7.73
2018-02-04T21:18:21.808Z,7.13
2018-02-04T21:20:47.916Z,7.63
2018-02-04T21:23:14.255Z,6.60
2018-02-04T21:25:40.463Z,7.43
2018-02-04T21:28:06.635Z,7.17
2018-02-04T21:30:32.849Z,7.20
2018-02-04T21:32:58.951Z,8.20
2018-02-04T21:35:25.101Z,7.83
2018-02-04T21:37:51.265Z,8.60
2018-02-04T21:40:17.356Z,6.67
2018-02-04T21:42:43.531Z,8.70
2018-02-04T21:45:09.758Z,7.97
2018-02-04T21:47:35.925Z,7.77
2018-02-04T21:50:02.087Z,10.77
2018-02-04T21:52:28.254Z,7.90
2018-02-04T21:54:54.416Z,8.83
2018-02-04T21:57:20.625Z,9.33
2018-02-04T21:59:46.880Z,7.20
2018-02-04T22:02:13.030Z,8.07
2018-02-04T22:04:39.185Z,8.23
2018-02-04T22:07:05.312Z,7.67
2018-02-04T22:09:31.418Z,8.23
2018-02-04T22:11:57.578Z,7.50
2018-02-04T22:14:23.785Z,7.67
2018-02-04T22:16:49.887Z,8.27
2018-02-04T22:19:15.972Z,7.70
2018-02-04T22:21:42.127Z,7.43
2018-02-04T22:24:08.224Z,8.07
2018-02-04T22:26:34.386Z,10.70
2018-02-04T22:29:00.607Z,7.87
2018-02-04T22:31:26.767Z,8.43
2018-02-04T22:33:52.862Z,7.20
2018-02-04T22:36:19.034Z,7.47
2018-02-04T22:38:45.164Z,7.33
2018-02-04T22:41:11.308Z,8.13
2018-02-04T22:43:37.443Z,8.30
2018-02-04T22:46:03.603Z,8.17
2018-02-04T22:48:29.737Z,8.63
2018-02-04T22:50:55.860Z,9.43
2018-02-04T22:53:22.026Z,8.63
2018-02-04T22:55:48.188Z,7.67
2018-02-04T22:58:14.350Z,8.23
2018-02-04T23:00:40.482Z,9.30
2018-02-04T23:03:06.724Z,11.87
2018-02-04T23:05:32.892Z,8.27
2018-02-04T23:07:58.988Z,9.00
2018-02-04T23:10:25.092Z,8.47
2018-02-04T23:12:51.255Z,9.37
2018-02-04T23:15:17.398Z,9.00
2018-02-04T23:17:43.559Z,10.30
2018-02-04T23:20:09.723Z,10.13
2018-02-04T23:22:35.852Z,9.30
2018-02-04T23:25:02.032Z,9.60
2018-02-04T23:27:28.301Z,8.53
2018-02-04T23:29:54.406Z,8.73
2018-02-04T23:32:20.582Z,10.13
2018-02-04T23:34:46.776Z,9.13
2018-02-04T23:37:12.898Z,9.33
2018-02-04T23:39:38.994Z,10.70
2018-02-04T23:42:05.132Z,9.47
2018-02-04T23:44:31.244Z,9.77
2018-02-04T23:46:57.377Z,10.00
2018-02-04T23:49:23.495Z,10.73
2018-02-04T23:51:49.613Z,11.17
2018-02-04T23:54:15.709Z,9.30
2018-02-04T23:56:41.853Z,9.43
2018-02-04T23:59:08.076Z,10.10
